sensor_id;sensor_type;location;lat;lon;timestamp;P1;durP1;ratioP1;P2;durP2;ratioP2
17390;SDS011;8813;54.444;18.446;2022-09-16T00:00:51;1.25;;;1.25;;
17390;SDS011;8813;54.444;18.446;2022-09-16T00:03:19;2.85;;;1.65;;
17390;SDS011;8813;54.444;18.446;2022-09-16T00:05:47;1.80;;;1.70;;
17390;SDS011;8813;54.444;18.446;2022-09-16T00:08:15;1.20;;;1.20;;
17390;SDS011;8813;54.444;18.446;2022-09-16T00:10:43;1.40;;;1.30;;
17390;SDS011;8813;54.444;18.446;2022-09-16T00:13:10;1.20;;;1.20;;
17390;SDS011;8813;54.444;18.446;2022-09-16T00:15:40;1.25;;;1.20;;
17390;SDS011;8813;54.444;18.446;2022-09-16T00:18:08;2.58;;;1.75;;
17390;SDS011;8813;54.444;18.446;2022-09-16T00:20:37;1.40;;;1.40;;
17390;SDS011;8813;54.444;18.446;2022-09-16T00:23:08;1.00;;;1.00;;
17390;SDS011;8813;54.444;18.446;2022-09-16T00:25:35;0.93;;;0.93;;
17390;SDS011;8813;54.444;18.446;2022-09-16T00:28:02;1.45;;;1.35;;
17390;SDS011;8813;54.444;18.446;2022-09-16T00:30:29;1.00;;;1.00;;
17390;SDS011;8813;54.444;18.446;2022-09-16T00:32:55;1.10;;;1.10;;
17390;SDS011;8813;54.444;18.446;2022-09-16T00:35:22;1.60;;;1.52;;
17390;SDS011;8813;54.444;18.446;2022-09-16T00:37:50;1.50;;;1.40;;
17390;SDS011;8813;54.444;18.446;2022-09-16T00:40:18;1.13;;;1.13;;
17390;SDS011;8813;54.444;18.446;2022-09-16T00:42:45;6.22;;;1.52;;
17390;SDS011;8813;54.444;18.446;2022-09-16T00:45:15;3.40;;;1.30;;
17390;SDS011;8813;54.444;18.446;2022-09-16T00:47:44;1.20;;;1.20;;
17390;SDS011;8813;54.444;18.446;2022-09-16T00:50:15;1.90;;;1.70;;
17390;SDS011;8813;54.444;18.446;2022-09-16T00:52:43;1.27;;;1.10;;
17390;SDS011;8813;54.444;18.446;2022-09-16T00:55:12;1.00;;;1.00;;
17390;SDS011;8813;54.444;18.446;2022-09-16T00:57:41;1.02;;;1.02;;
17390;SDS011;8813;54.444;18.446;2022-09-16T01:00:09;1.40;;;1.30;;
17390;SDS011;8813;54.444;18.446;2022-09-16T01:02:38;1.17;;;1.17;;
17390;SDS011;8813;54.444;18.446;2022-09-16T01:05:06;1.30;;;1.30;;
17390;SDS011;8813;54.444;18.446;2022-09-16T01:07:36;1.17;;;1.17;;
17390;SDS011;8813;54.444;18.446;2022-09-16T01:10:05;1.95;;;1.33;;
17390;SDS011;8813;54.444;18.446;2022-09-16T01:12:34;1.48;;;1.48;;
17390;SDS011;8813;54.444;18.446;2022-09-16T01:15:02;1.20;;;1.20;;
17390;SDS011;8813;54.444;18.446;2022-09-16T01:17:38;8.88;;;1.33;;
17390;SDS011;8813;54.444;18.446;2022-09-16T01:20:40;1.20;;;1.20;;
17390;SDS011;8813;54.444;18.446;2022-09-16T01:26:39;5.10;;;1.85;;
17390;SDS011;8813;54.444;18.446;2022-09-16T01:32:26;2.10;;;1.17;;
17390;SDS011;8813;54.444;18.446;2022-09-16T01:34:56;1.00;;;1.00;;
17390;SDS011;8813;54.444;18.446;2022-09-16T01:37:32;4.50;;;2.13;;
17390;SDS011;8813;54.444;18.446;2022-09-16T01:40:02;1.48;;;1.48;;
17390;SDS011;8813;54.444;18.446;2022-09-16T01:42:35;1.65;;;1.65;;
17390;SDS011;8813;54.444;18.446;2022-09-16T01:45:05;4.40;;;1.58;;
17390;SDS011;8813;54.444;18.446;2022-09-16T01:47:37;3.15;;;1.83;;
17390;SDS011;8813;54.444;18.446;2022-09-16T01:50:12;4.97;;;1.92;;
17390;SDS011;8813;54.444;18.446;2022-09-16T01:52:44;1.20;;;1.20;;
17390;SDS011;8813;54.444;18.446;2022-09-16T01:55:18;1.00;;;1.00;;
17390;SDS011;8813;54.444;18.446;2022-09-16T01:57:49;1.60;;;1.50;;
17390;SDS011;8813;54.444;18.446;2022-09-16T02:00:19;2.92;;;1.90;;
17390;SDS011;8813;54.444;18.446;2022-09-16T02:02:47;3.67;;;1.60;;
17390;SDS011;8813;54.444;18.446;2022-09-16T02:05:18;1.25;;;1.25;;
17390;SDS011;8813;54.444;18.446;2022-09-16T02:07:49;1.20;;;1.20;;
17390;SDS011;8813;54.444;18.446;2022-09-16T02:10:19;3.17;;;2.70;;
17390;SDS011;8813;54.444;18.446;2022-09-16T02:12:48;1.15;;;1.13;;
17390;SDS011;8813;54.444;18.446;2022-09-16T02:15:19;1.25;;;1.25;;
17390;SDS011;8813;54.444;18.446;2022-09-16T02:17:50;3.95;;;1.48;;
17390;SDS011;8813;54.444;18.446;2022-09-16T02:20:22;1.52;;;1.27;;
17390;SDS011;8813;54.444;18.446;2022-09-16T02:22:53;3.97;;;1.70;;
17390;SDS011;8813;54.444;18.446;2022-09-16T02:25:23;1.30;;;1.30;;
17390;SDS011;8813;54.444;18.446;2022-09-16T02:27:53;1.15;;;1.13;;
17390;SDS011;8813;54.444;18.446;2022-09-16T02:30:20;6.30;;;1.60;;
17390;SDS011;8813;54.444;18.446;2022-09-16T02:32:48;1.38;;;1.30;;
17390;SDS011;8813;54.444;18.446;2022-09-16T02:35:20;3.13;;;1.42;;
17390;SDS011;8813;54.444;18.446;2022-09-16T02:37:48;1.00;;;1.00;;
17390;SDS011;8813;54.444;18.446;2022-09-16T02:40:17;4.40;;;1.20;;
17390;SDS011;8813;54.444;18.446;2022-09-16T02:42:45;2.08;;;1.88;;
17390;SDS011;8813;54.444;18.446;2022-09-16T02:45:13;3.10;;;1.48;;
17390;SDS011;8813;54.444;18.446;2022-09-16T02:47:42;2.22;;;2.03;;
17390;SDS011;8813;54.444;18.446;2022-09-16T02:50:14;1.15;;;1.10;;
17390;SDS011;8813;54.444;18.446;2022-09-16T02:52:45;4.63;;;1.80;;
17390;SDS011;8813;54.444;18.446;2022-09-16T02:55:19;1.23;;;1.23;;
17390;SDS011;8813;54.444;18.446;2022-09-16T02:57:54;1.10;;;1.10;;
17390;SDS011;8813;54.444;18.446;2022-09-16T03:00:21;1.10;;;1.10;;
17390;SDS011;8813;54.444;18.446;2022-09-16T03:02:50;0.90;;;0.90;;
17390;SDS011;8813;54.444;18.446;2022-09-16T03:05:18;1.23;;;1.23;;
17390;SDS011;8813;54.444;18.446;2022-09-16T03:07:45;1.90;;;1.80;;
17390;SDS011;8813;54.444;18.446;2022-09-16T03:10:13;1.23;;;1.23;;
17390;SDS011;8813;54.444;18.446;2022-09-16T03:12:44;1.80;;;1.23;;
17390;SDS011;8813;54.444;18.446;2022-09-16T03:15:27;3.38;;;1.20;;
17390;SDS011;8813;54.444;18.446;2022-09-16T03:18:25;1.48;;;1.20;;
17390;SDS011;8813;54.444;18.446;2022-09-16T03:21:01;2.42;;;1.10;;
17390;SDS011;8813;54.444;18.446;2022-09-16T03:23:40;1.10;;;1.10;;
17390;SDS011;8813;54.444;18.446;2022-09-16T03:26:10;1.58;;;1.50;;
17390;SDS011;8813;54.444;18.446;2022-09-16T03:28:44;1.40;;;1.40;;
17390;SDS011;8813;54.444;18.446;2022-09-16T03:31:15;1.15;;;1.15;;
17390;SDS011;8813;54.444;18.446;2022-09-16T03:33:45;1.25;;;1.20;;
17390;SDS011;8813;54.444;18.446;2022-09-16T03:36:18;1.42;;;1.33;;
17390;SDS011;8813;54.444;18.446;2022-09-16T03:38:46;10.95;;;1.48;;
17390;SDS011;8813;54.444;18.446;2022-09-16T03:41:14;1.05;;;1.05;;
17390;SDS011;8813;54.444;18.446;2022-09-16T03:43:50;1.00;;;1.00;;
17390;SDS011;8813;54.444;18.446;2022-09-16T03:46:18;2.53;;;1.48;;
17390;SDS011;8813;54.444;18.446;2022-09-16T03:48:46;1.13;;;1.13;;
17390;SDS011;8813;54.444;18.446;2022-09-16T03:51:13;3.63;;;1.15;;
17390;SDS011;8813;54.444;18.446;2022-09-16T03:53:42;2.25;;;1.20;;
17390;SDS011;8813;54.444;18.446;2022-09-16T03:56:09;2.75;;;1.50;;
17390;SDS011;8813;54.444;18.446;2022-09-16T03:58:36;4.47;;;1.60;;
17390;SDS011;8813;54.444;18.446;2022-09-16T04:01:03;3.13;;;1.52;;
17390;SDS011;8813;54.444;18.446;2022-09-16T04:03:30;4.38;;;2.25;;
17390;SDS011;8813;54.444;18.446;2022-09-16T04:05:57;1.85;;;1.35;;
17390;SDS011;8813;54.444;18.446;2022-09-16T04:08:26;6.32;;;1.80;;
17390;SDS011;8813;54.444;18.446;2022-09-16T04:10:53;7.22;;;1.90;;
17390;SDS011;8813;54.444;18.446;2022-09-16T04:13:20;4.82;;;2.03;;
17390;SDS011;8813;54.444;18.446;2022-09-16T04:15:47;1.27;;;1.27;;
17390;SDS011;8813;54.444;18.446;2022-09-16T04:18:14;3.53;;;1.33;;
17390;SDS011;8813;54.444;18.446;2022-09-16T04:20:41;2.10;;;1.40;;
17390;SDS011;8813;54.444;18.446;2022-09-16T04:23:12;6.15;;;2.78;;
17390;SDS011;8813;54.444;18.446;2022-09-16T04:25:49;2.35;;;1.92;;
17390;SDS011;8813;54.444;18.446;2022-09-16T04:28:19;2.13;;;2.03;;
17390;SDS011;8813;54.444;18.446;2022-09-16T04:30:46;2.40;;;2.30;;
17390;SDS011;8813;54.444;18.446;2022-09-16T04:33:16;2.50;;;2.40;;
17390;SDS011;8813;54.444;18.446;2022-09-16T04:35:44;2.80;;;2.70;;
17390;SDS011;8813;54.444;18.446;2022-09-16T04:38:12;2.90;;;2.80;;
17390;SDS011;8813;54.444;18.446;2022-09-16T04:40:40;4.53;;;4.05;;
17390;SDS011;8813;54.444;18.446;2022-09-16T04:43:09;4.50;;;4.40;;
17390;SDS011;8813;54.444;18.446;2022-09-16T04:45:36;5.15;;;4.90;;
